Time;durP1;ratioP1;P1;durP2;ratioP2;P2;SDS_P1;SDS_P2;PMS_P1;PMS_P2;Temp;Humidity;BMP_temperature;BMP_pressure;BME280_temperature;BME280_humidity;BME280_pressure;Samples;Min_cycle;Max_cycle;Signal;HPM_P1;HPM_P2
2022/04/25 00:01:26;;;;;;;26.47;21.77;;;;;6.90;93059.00;;;;7392099;19;20149;-78
2022/04/25 00:04:01;;;;;;;28.67;23.30;;;;;6.90;93051.00;;;;7390624;19;20140;-78
2022/04/25 00:06:28;;;;;;;31.97;24.57;;;;;6.90;93049.00;;;;7395301;19;20148;-78
2022/04/25 00:08:56;;;;;;;32.80;26.20;;;;;6.70;93051.00;;;;7394620;19;20164;-78
2022/04/25 00:11:30;;;;;;;33.43;26.30;;;;;6.70;93051.00;;;;7398701;19;20128;-78
2022/04/25 00:13:58;;;;;;;35.13;27.20;;;;;6.70;93056.00;;;;7400346;19;20125;-78
2022/04/25 00:16:25;;;;;;;33.83;27.07;;;;;6.60;93058.00;;;;7399952;19;20885;-78
2022/04/25 00:19:00;;;;;;;33.50;26.17;;;;;6.50;93055.00;;;;7397809;19;20488;-78
2022/04/25 00:21:27;;;;;;;29.87;25.67;;;;;6.50;93061.00;;;;7402363;19;20184;-78
2022/04/25 00:23:55;;;;;;;33.10;27.53;;;;;6.60;93052.00;;;;7400067;19;20130;-79
2022/04/25 00:26:29;;;;;;;33.20;26.40;;;;;6.50;93061.00;;;;7399248;19;20516;-77
2022/04/25 00:28:57;;;;;;;34.83;27.23;;;;;6.50;93061.00;;;;7397669;19;20592;-78
2022/04/25 00:31:24;;;;;;;33.33;27.03;;;;;6.50;93059.00;;;;7397453;19;20136;-79
2022/04/25 00:33:58;;;;;;;32.83;26.97;;;;;6.50;93051.00;;;;7400618;19;20133;-78
2022/04/25 00:36:26;;;;;;;29.47;25.30;;;;;6.30;93066.00;;;;7398471;19;20655;-78
2022/04/25 00:38:53;;;;;;;33.83;28.07;;;;;6.30;93069.00;;;;7397253;19;20144;-77
2022/04/25 00:41:27;;;;;;;34.63;27.77;;;;;6.40;93061.00;;;;7397820;19;20137;-77
2022/04/25 00:43:58;;;;;;;31.10;25.80;;;;;6.30;93067.00;;;;7396807;19;20753;-78
2022/04/25 00:46:26;;;;;;;34.07;27.73;;;;;6.30;93069.00;;;;7396039;19;20642;-78
2022/04/25 00:49:07;;;;;;;33.87;28.47;;;;;6.40;93069.00;;;;7397530;19;20171;-78
2022/04/25 00:51:42;;;;;;;38.17;29.67;;;;;6.20;93071.00;;;;7397718;19;20144;-78
2022/04/25 00:54:17;;;;;;;38.00;29.77;;;;;6.20;93070.00;;;;7396652;19;20150;-77
2022/04/25 00:56:46;;;;;;;37.00;30.27;;;;;6.20;93071.00;;;;7396471;19;20137;-77
2022/04/25 00:59:16;;;;;;;37.80;29.70;;;;;6.30;93070.00;;;;7396102;19;20221;-77
2022/04/25 01:01:53;;;;;;;41.97;29.60;;;;;6.20;93069.00;;;;7399266;19;20117;-75
2022/04/25 01:04:21;;;;;;;37.67;29.70;;;;;6.20;93065.00;;;;7395999;19;20644;-75
2022/04/25 01:06:49;;;;;;;41.07;30.80;;;;;6.00;93062.00;;;;7396086;19;20152;-74
2022/04/25 01:09:25;;;;;;;39.20;30.63;;;;;5.90;93060.00;;;;7395024;19;20135;-76
2022/04/25 01:11:53;;;;;;;40.20;30.97;;;;;5.90;93066.00;;;;7399032;19;20136;-74
2022/04/25 01:14:22;;;;;;;39.43;30.93;;;;;5.80;93060.00;;;;7396657;19;20136;-75
2022/04/25 01:16:56;;;;;;;41.07;31.50;;;;;5.80;93060.00;;;;7396931;19;20192;-76
2022/04/25 01:19:23;;;;;;;40.37;31.20;;;;;5.80;93060.00;;;;7396743;19;20584;-75
2022/04/25 01:21:59;;;;;;;40.37;31.33;;;;;5.80;93064.00;;;;7393565;19;20137;-75
2022/04/25 01:27:20;;;;;;;41.57;31.20;;;;;5.50;93059.00;;;;7393617;19;20204;-75
2022/04/25 01:29:55;;;;;;;39.63;30.37;;;;;5.40;93053.00;;;;7396275;19;20121;-75
2022/04/25 01:32:24;;;;;;;45.33;32.07;;;;;5.30;93055.00;;;;7396279;19;20144;-75
2022/04/25 01:34:52;;;;;;;43.17;31.43;;;;;5.20;93069.00;;;;7394701;19;20152;-75
2022/04/25 01:37:26;;;;;;;50.33;34.23;;;;;5.30;93072.00;;;;7394776;19;20132;-74
2022/04/25 01:39:55;;;;;;;53.80;35.30;;;;;5.30;93061.00;;;;7395354;19;20149;-75
2022/04/25 01:42:23;;;;;;;54.87;35.40;;;;;5.10;93068.00;;;;7394752;19;20611;-74
2022/04/25 01:44:57;;;;;;;53.90;36.23;;;;;5.20;93065.00;;;;7394475;19;20125;-74
2022/04/25 01:47:25;;;;;;;58.27;36.50;;;;;5.20;93067.00;;;;7395339;19;20132;-74
2022/04/25 01:49:52;;;;;;;60.93;37.50;;;;;5.10;93060.00;;;;7394284;19;20603;-74
2022/04/25 01:52:32;;;;;;;57.63;36.20;;;;;5.10;93057.00;;;;7395746;19;20133;-75
2022/04/25 01:55:01;;;;;;;57.27;35.20;;;;;4.90;93060.00;;;;7394370;19;20144;-74
2022/04/25 01:57:35;;;;;;;60.57;36.70;;;;;5.00;93062.00;;;;7394407;19;20162;-75
2022/04/25 02:00:04;;;;;;;61.77;37.80;;;;;4.90;93073.00;;;;7394878;19;20141;-74
2022/04/25 02:02:32;;;;;;;60.57;36.90;;;;;5.00;93068.00;;;;7394090;19;20246;-74
2022/04/25 02:05:07;;;;;;;72.10;38.90;;;;;5.10;93070.00;;;;7393507;19;20489;-74
2022/04/25 02:07:35;;;;;;;76.87;40.50;;;;;5.00;93070.00;;;;7393440;19;20145;-75
2022/04/25 02:10:03;;;;;;;66.27;39.50;;;;;4.90;93067.00;;;;7393131;19;20177;-74
2022/04/25 02:12:37;;;;;;;71.50;39.60;;;;;5.00;93080.00;;;;7393587;19;20686;-74
2022/04/25 02:15:12;;;;;;;67.07;39.10;;;;;5.00;93073.00;;;;7393112;19;20708;-75
2022/04/25 02:17:49;;;;;;;74.37;40.10;;;;;5.00;93079.00;;;;7395301;19;20133;-76
2022/04/25 02:20:16;;;;;;;80.47;42.10;;;;;4.90;93078.00;;;;7394165;19;20147;-74
2022/04/25 02:22:44;;;;;;;78.97;40.70;;;;;5.00;93073.00;;;;7393206;19;20141;-75
2022/04/25 02:25:19;;;;;;;79.13;42.50;;;;;5.10;93086.00;;;;7392856;19;20164;-75
2022/04/25 02:27:47;;;;;;;69.57;40.87;;;;;4.90;93075.00;;;;7393132;19;20129;-74
2022/04/25 02:30:14;;;;;;;86.27;43.13;;;;;5.00;93075.00;;;;7394445;19;20128;-74
2022/04/25 02:32:48;;;;;;;82.97;43.00;;;;;4.90;93078.00;;;;7391928;19;20147;-73
2022/04/25 02:35:16;;;;;;;89.33;44.53;;;;;4.90;93080.00;;;;7393238;19;20188;-76
2022/04/25 02:37:43;;;;;;;82.27;43.70;;;;;5.00;93086.00;;;;7393055;19;20145;-74
2022/04/25 02:40:17;;;;;;;85.90;43.70;;;;;4.80;93071.00;;;;7392940;19;20501;-73
2022/04/25 02:42:45;;;;;;;83.23;42.43;;;;;4.80;93077.00;;;;7393368;19;20516;-75
2022/04/25 02:45:12;;;;;;;82.57;43.27;;;;;4.70;93080.00;;;;7393987;19;20133;-74
2022/04/25 02:47:46;;;;;;;83.30;42.63;;;;;4.80;93084.00;;;;7391430;19;20494;-74
2022/04/25 02:50:20;;;;;;;86.77;44.77;;;;;4.90;93094.00;;;;7391111;19;20531;-74
2022/04/25 02:53:01;;;;;;;86.83;44.47;;;;;4.70;93086.00;;;;7393603;19;20129;-75
2022/04/25 02:55:28;;;;;;;84.57;43.43;;;;;4.70;93097.00;;;;7393447;19;20502;-74
2022/04/25 02:58:02;;;;;;;88.03;44.13;;;;;4.70;93086.00;;;;7392807;19;20142;-75
2022/04/25 03:00:30;;;;;;;84.60;43.87;;;;;4.80;93093.00;;;;7391698;19;20161;-75
2022/04/25 03:02:57;;;;;;;88.43;46.87;;;;;4.90;93093.00;;;;7392411;19;20580;-74
2022/04/25 03:05:31;;;;;;;86.83;45.30;;;;;4.90;93086.00;;;;7393255;19;20604;-74
2022/04/25 03:07:59;;;;;;;98.57;46.93;;;;;4.90;93086.00;;;;7390831;19;20136;-74
2022/04/25 03:10:26;;;;;;;100.70;47.40;;;;;5.00;93089.00;;;;7390462;19;20738;-74
2022/04/25 03:13:00;;;;;;;103.00;47.33;;;;;4.90;93090.00;;;;7392510;19;20157;-74
2022/04/25 03:15:28;;;;;;;97.43;47.20;;;;;5.00;93098.00;;;;7391578;19;20129;-74
2022/04/25 03:17:56;;;;;;;84.93;43.73;;;;;4.90;93088.00;;;;7391189;19;20125;-75
2022/04/25 03:20:31;;;;;;;83.10;43.67;;;;;5.00;93092.00;;;;7391789;19;20136;-76
2022/04/25 03:22:59;;;;;;;84.23;42.80;;;;;4.90;93089.00;;;;7392290;19;20137;-74
2022/04/25 03:25:28;;;;;;;80.90;42.80;;;;;4.90;93090.00;;;;7388946;19;20196;-74
2022/04/25 03:28:03;;;;;;;81.60;42.30;;;;;4.90;93087.00;;;;7389294;19;20131;-74
2022/04/25 03:30:31;;;;;;;81.10;42.73;;;;;4.90;93093.00;;;;7392444;19;20133;-76
2022/04/25 03:32:58;;;;;;;85.90;42.20;;;;;5.00;93095.00;;;;7392601;19;20125;-75
2022/04/25 03:35:32;;;;;;;82.83;41.70;;;;;4.90;93092.00;;;;7390389;19;20141;-74
2022/04/25 03:38:01;;;;;;;74.13;41.13;;;;;4.90;93093.00;;;;7392682;19;20129;-76
2022/04/25 03:40:28;;;;;;;74.50;39.90;;;;;4.90;93102.00;;;;7392933;19;20121;-73
2022/04/25 03:43:07;;;;;;;76.83;41.17;;;;;5.00;93103.00;;;;7388892;19;20575;-75
2022/04/25 03:45:36;;;;;;;87.30;41.00;;;;;5.10;93109.00;;;;7390789;19;20145;-74
2022/04/25 03:48:10;;;;;;;83.27;41.07;;;;;5.00;93102.00;;;;7390312;19;20595;-75
2022/04/25 03:50:45;;;;;;;317.03;58.13;;;;;4.90;93108.00;;;;7391010;19;20204;-74
2022/04/25 03:53:19;;;;;;;85.50;38.53;;;;;4.90;93114.00;;;;7391721;19;20133;-75
2022/04/25 03:58:39;;;;;;;86.13;39.30;;;;;4.90;93118.00;;;;7391873;19;20462;-74
2022/04/25 04:01:07;;;;;;;88.13;40.40;;;;;5.10;93119.00;;;;7390910;19;20141;-74
2022/04/25 04:03:35;;;;;;;154.70;44.77;;;;;5.00;93121.00;;;;7390394;19;20532;-76
2022/04/25 04:06:12;;;;;;;780.67;82.07;;;;;5.00;93119.00;;;;7388136;19;20181;-75
2022/04/25 04:08:40;;;;;;;855.17;76.30;;;;;5.00;93121.00;;;;7387143;19;20484;-75
2022/04/25 04:11:08;;;;;;;558.73;56.50;;;;;4.90;93133.00;;;;7388715;19;20160;-73
2022/04/25 04:13:41;;;;;;;229.57;43.77;;;;;4.90;93125.00;;;;7389849;19;20151;-74
2022/04/25 04:16:09;;;;;;;91.43;37.30;;;;;4.90;93130.00;;;;7389773;19;20142;-75
2022/04/25 04:18:39;;;;;;;121.20;40.13;;;;;4.90;93131.00;;;;7390558;19;20501;-74
2022/04/25 04:21:13;;;;;;;136.90;43.40;;;;;4.90;93134.00;;;;7390956;19;20144;-74
2022/04/25 04:23:41;;;;;;;106.83;39.57;;;;;5.00;93136.00;;;;7389356;19;20715;-75
2022/04/25 04:26:08;;;;;;;72.40;34.77;;;;;5.00;93140.00;;;;7390412;19;20133;-74
2022/04/25 04:28:43;;;;;;;104.83;39.03;;;;;5.00;93143.00;;;;7388483;19;20121;-74
2022/04/25 04:31:10;;;;;;;81.90;36.00;;;;;5.00;93135.00;;;;7388958;19;20136;-74
2022/04/25 04:33:38;;;;;;;85.03;38.97;;;;;5.10;93153.00;;;;7390146;19;20480;-74
2022/04/25 04:36:18;;;;;;;85.07;36.00;;;;;5.10;93147.00;;;;7391009;19;20145;-74
2022/04/25 04:38:46;;;;;;;89.53;39.20;;;;;5.10;93160.00;;;;7388837;19;20612;-74
2022/04/25 04:41:20;;;;;;;77.90;36.93;;;;;5.10;93158.00;;;;7389284;19;20128;-75
2022/04/25 04:43:48;;;;;;;77.13;35.13;;;;;5.20;93163.00;;;;7390129;19;20133;-75
2022/04/25 04:46:15;;;;;;;86.40;38.07;;;;;5.20;93157.00;;;;7390443;19;20588;-74
2022/04/25 04:48:49;;;;;;;121.33;41.73;;;;;5.20;93168.00;;;;7387225;19;20129;-73
2022/04/25 04:51:23;;;;;;;80.03;37.60;;;;;5.40;93169.00;;;;7387528;19;20160;-73
2022/04/25 04:54:01;;;;;;;91.27;37.30;;;;;5.40;93170.00;;;;7389799;19;20140;-75
2022/04/25 04:56:33;;;;;;;62.93;33.90;;;;;5.50;93178.00;;;;7396465;19;20164;-74
2022/04/25 04:59:07;;;;;;;67.47;34.90;;;;;5.60;93181.00;;;;7397142;19;20125;-75
2022/04/25 05:01:35;;;;;;;60.23;33.30;;;;;5.70;93179.00;;;;7397122;19;20179;-74
2022/04/25 05:04:02;;;;;;;93.30;39.43;;;;;5.70;93185.00;;;;7395358;19;20152;-74
2022/04/25 05:06:36;;;;;;;86.10;35.63;;;;;5.80;93185.00;;;;7395696;19;20153;-75
2022/04/25 05:09:04;;;;;;;92.57;36.70;;;;;5.80;93180.00;;;;7394356;19;20138;-75
2022/04/25 05:11:31;;;;;;;69.60;34.73;;;;;6.00;93185.00;;;;7397028;19;20125;-75
2022/04/25 05:14:09;;;;;;;55.57;31.60;;;;;5.90;93188.00;;;;7395311;19;20145;-74
2022/04/25 05:16:36;;;;;;;45.57;31.50;;;;;6.10;93185.00;;;;7396325;19;20144;-75
2022/04/25 05:19:04;;;;;;;48.17;31.10;;;;;6.10;93189.00;;;;7395623;19;20489;-75
2022/04/25 05:21:39;;;;;;;48.77;32.53;;;;;6.10;93189.00;;;;7395609;19;20195;-74
2022/04/25 05:24:07;;;;;;;48.03;31.23;;;;;6.20;93193.00;;;;7395641;19;20137;-76
2022/04/25 05:26:34;;;;;;;40.83;28.77;;;;;6.20;93200.00;;;;7395964;19;20603;-75
2022/04/25 05:29:13;;;;;;;40.80;29.27;;;;;6.40;93204.00;;;;7393185;19;20516;-75
2022/04/25 05:31:41;;;;;;;42.37;28.87;;;;;6.30;93200.00;;;;7394505;19;20165;-75
2022/04/25 05:34:09;;;;;;;39.00;28.70;;;;;6.40;93201.00;;;;7395714;19;20121;-75
2022/04/25 05:36:43;;;;;;;41.73;29.83;;;;;6.30;93210.00;;;;7395416;19;20491;-74
2022/04/25 05:39:11;;;;;;;36.03;26.87;;;;;6.40;93214.00;;;;7394907;19;20145;-74
2022/04/25 05:41:41;;;;;;;40.53;29.50;;;;;6.60;93214.00;;;;7395803;19;20579;-75
2022/04/25 05:44:14;;;;;;;34.00;26.60;;;;;6.60;93222.00;;;;7395242;19;20133;-75
2022/04/25 05:46:42;;;;;;;32.90;26.30;;;;;6.70;93216.00;;;;7394833;19;20145;-77
2022/04/25 05:52:15;;;;;;;30.67;24.07;;;;;6.80;93223.00;;;;7394252;19;20157;-75
2022/04/25 05:54:46;;;;;;;29.17;24.37;;;;;7.00;93226.00;;;;7396494;19;20153;-74
2022/04/25 05:57:22;;;;;;;33.00;24.70;;;;;7.20;93219.00;;;;7399331;19;20176;-74
2022/04/25 05:59:50;;;;;;;29.77;24.43;;;;;7.10;93220.00;;;;7393550;19;20116;-74
2022/04/25 06:02:17;;;;;;;30.70;24.30;;;;;7.20;93227.00;;;;7397438;19;20160;-74
2022/04/25 06:04:51;;;;;;;26.50;23.13;;;;;7.20;93228.00;;;;7395521;19;20136;-76
2022/04/25 06:07:19;;;;;;;26.27;21.87;;;;;7.20;93228.00;;;;7396108;19;20262;-74
2022/04/25 06:09:46;;;;;;;26.17;22.30;;;;;7.40;93231.00;;;;7393092;19;20632;-74
2022/04/25 06:12:22;;;;;;;24.63;21.47;;;;;7.40;93223.00;;;;7398207;19;20608;-75
2022/04/25 06:14:52;;;;;;;25.07;21.77;;;;;7.40;93223.00;;;;7397499;19;20581;-74
2022/04/25 06:17:20;;;;;;;26.40;21.30;;;;;7.60;93230.00;;;;7394516;19;20152;-74
2022/04/25 06:19:54;;;;;;;24.70;21.43;;;;;7.50;93221.00;;;;7393347;19;20488;-75
2022/04/25 06:22:38;;;;;;;25.33;22.27;;;;;7.60;93229.00;;;;7394830;19;20148;-75
2022/04/25 06:25:20;;;;;;;24.40;21.27;;;;;7.50;93229.00;;;;7396898;19;20464;-74
2022/04/25 06:27:48;;;;;;;25.33;22.40;;;;;7.40;93227.00;;;;7396576;19;20155;-74
2022/04/25 06:30:28;;;;;;;28.43;22.97;;;;;7.30;93235.00;;;;7393964;19;20648;-74
2022/04/25 06:32:59;;;;;;;27.53;22.40;;;;;7.50;93231.00;;;;7396824;19;20151;-74
2022/04/25 06:35:33;;;;;;;24.57;21.43;;;;;7.70;93239.00;;;;7396780;19;20224;-74
2022/04/25 06:38:01;;;;;;;27.43;22.00;;;;;7.70;93239.00;;;;7395252;19;20121;-75
2022/04/25 06:40:29;;;;;;;22.73;20.27;;;;;7.70;93245.00;;;;7392112;19;20137;-74
2022/04/25 06:43:05;;;;;;;23.67;20.80;;;;;8.10;93243.00;;;;7394891;19;20512;-75
2022/04/25 06:45:33;;;;;;;23.70;21.30;;;;;8.20;93244.00;;;;7396923;19;20149;-73
2022/04/25 06:48:01;;;;;;;27.33;21.37;;;;;8.40;93254.00;;;;7394591;19;20148;-76
2022/04/25 06:50:42;;;;;;;23.90;21.40;;;;;8.50;93257.00;;;;7395932;19;20568;-76
2022/04/25 06:53:11;;;;;;;23.67;19.50;;;;;8.40;93247.00;;;;7392716;19;20137;-75
2022/04/25 06:55:47;;;;;;;22.53;20.23;;;;;8.60;93250.00;;;;7391655;19;20155;-74
2022/04/25 06:58:15;;;;;;;21.40;18.90;;;;;8.60;93250.00;;;;7392968;19;20159;-74
2022/04/25 07:00:42;;;;;;;20.00;18.00;;;;;8.70;93255.00;;;;7395205;19;20603;-75
2022/04/25 07:03:25;;;;;;;19.67;17.57;;;;;8.70;93250.00;;;;7394314;19;20175;-75
2022/04/25 07:05:55;;;;;;;20.63;18.07;;;;;8.80;93250.00;;;;7395066;19;20149;-74
2022/04/25 07:08:29;;;;;;;21.83;17.90;;;;;8.90;93258.00;;;;7394557;19;20515;-74
2022/04/25 07:10:57;;;;;;;20.17;17.90;;;;;8.90;93255.00;;;;7392844;19;20631;-75
2022/04/25 07:13:25;;;;;;;19.70;17.60;;;;;9.10;93254.00;;;;7396979;19;20619;-74
2022/04/25 07:16:02;;;;;;;19.63;17.13;;;;;9.20;93257.00;;;;7396119;19;20140;-74
2022/04/25 07:18:30;;;;;;;17.80;16.02;;;;;8.90;93261.00;;;;7389806;19;20634;-73
2022/04/25 07:20:58;;;;;;;18.40;16.40;;;;;9.00;93257.00;;;;7394458;19;20607;-75
2022/04/25 07:29:12;;;;;;;19.52;17.40;;;;;9.50;93256.00;;;;7389507;19;20503;-75
2022/04/25 07:31:40;;;;;;;18.00;16.10;;;;;9.50;93257.00;;;;7393666;19;20516;-75
2022/04/25 07:34:08;;;;;;;18.60;16.70;;;;;9.90;93249.00;;;;7393050;19;20487;-76
2022/04/25 07:36:42;;;;;;;18.40;16.55;;;;;10.10;93253.00;;;;7394112;19;20179;-74
2022/04/25 07:39:10;;;;;;;19.27;17.27;;;;;11.10;93236.00;;;;7390354;19;20535;-74
2022/04/25 07:41:37;;;;;;;17.52;15.82;;;;;12.30;93251.00;;;;7392658;19;20156;-74
2022/04/25 07:44:11;;;;;;;18.25;16.40;;;;;12.40;93237.00;;;;7394847;19;20474;-73
2022/04/25 07:46:44;;;;;;;16.55;14.95;;;;;13.00;93236.00;;;;7391708;19;20160;-73
2022/04/25 07:49:18;;;;;;;15.30;13.80;;;;;13.20;93241.00;;;;7392365;19;20152;-75
2022/04/25 07:51:52;;;;;;;15.05;13.52;;;;;13.00;93243.00;;;;7390879;19;20666;-76
2022/04/25 07:54:26;;;;;;;14.13;12.52;;;;;13.30;93249.00;;;;7393707;19;20125;-73
2022/04/25 07:56:55;;;;;;;13.55;12.15;;;;;12.60;93257.00;;;;7394110;19;20491;-74
2022/04/25 07:59:22;;;;;;;11.73;10.63;;;;;12.20;93262.00;;;;7390675;19;20181;-75
2022/04/25 08:01:57;;;;;;;13.00;11.70;;;;;11.60;93269.00;;;;7393458;19;20160;-74
2022/04/25 08:04:25;;;;;;;11.50;10.30;;;;;11.60;93271.00;;;;7394614;19;20182;-74
2022/04/25 08:06:53;;;;;;;13.00;11.80;;;;;11.70;93277.00;;;;7383528;19;20136;-74
2022/04/25 08:09:27;;;;;;;12.45;11.25;;;;;11.10;93280.00;;;;7393290;19;20157;-74
2022/04/25 08:20:47;;;;;;;13.70;11.63;;;;;11.60;93286.00;;;;7389661;19;20157;-75
2022/04/25 08:23:15;;;;;;;13.23;11.88;;;;;11.40;93277.00;;;;7388805;19;20136;-76
2022/04/25 08:25:43;;;;;;;12.73;11.45;;;;;11.50;93285.00;;;;7392071;19;20675;-75
2022/04/25 08:28:48;;;;;;;11.95;10.85;;;;;12.10;93290.00;;;;7395726;19;20405;-74
2022/04/25 08:31:33;;;;;;;12.57;11.38;;;;;12.40;93286.00;;;;7404495;19;20149;-74
2022/04/25 08:34:10;;;;;;;12.38;11.13;;;;;13.00;93293.00;;;;7404668;19;20570;-75
2022/04/25 08:36:38;;;;;;;12.43;11.23;;;;;13.70;93282.00;;;;7401631;19;20198;-75
2022/04/25 08:39:09;;;;;;;16.02;10.93;;;;;13.80;93281.00;;;;7406813;19;20442;-74
2022/04/25 08:41:57;;;;;;;11.63;10.43;;;;;13.80;93293.00;;;;7401002;19;20269;-75
2022/04/25 08:44:31;;;;;;;11.60;10.50;;;;;13.60;93284.00;;;;7405172;19;20946;-75
2022/04/25 08:47:08;;;;;;;357.85;43.20;;;;;13.50;93295.00;;;;7404384;19;20507;-76
2022/04/25 08:49:44;;;;;;;13.77;10.90;;;;;13.50;93301.00;;;;7402730;19;20167;-76
2022/04/25 08:52:31;;;;;;;10.85;9.85;;;;;13.30;93299.00;;;;7402981;19;20536;-76
2022/04/25 08:55:00;;;;;;;12.25;10.93;;;;;12.90;93306.00;;;;7402077;19;20148;-76
2022/04/25 08:57:38;;;;;;;11.57;10.40;;;;;13.00;93306.00;;;;7402373;19;20156;-76
2022/04/25 09:00:07;;;;;;;11.82;10.65;;;;;12.60;93321.00;;;;7405205;19;20133;-76
2022/04/25 09:02:44;;;;;;;12.63;11.32;;;;;11.90;93327.00;;;;7402765;19;20618;-74
2022/04/25 09:05:13;;;;;;;11.68;10.38;;;;;11.30;93332.00;;;;7406496;19;20141;-75
2022/04/25 09:07:42;;;;;;;12.65;10.23;;;;;11.00;93328.00;;;;7402521;19;20136;-75
2022/04/25 09:10:23;;;;;;;11.57;10.48;;;;;11.00;93329.00;;;;7404017;19;20183;-73
2022/04/25 09:12:53;;;;;;;11.43;9.77;;;;;10.90;93328.00;;;;7405619;19;20472;-75
2022/04/25 09:15:28;;;;;;;13.40;12.02;;;;;10.80;93346.00;;;;7401154;19;20153;-75
2022/04/25 09:17:57;;;;;;;15.07;11.80;;;;;10.80;93349.00;;;;7403496;19;20153;-74
2022/04/25 09:20:26;;;;;;;13.43;12.07;;;;;10.40;93344.00;;;;7403679;19;20160;-74
2022/04/25 09:23:01;;;;;;;12.02;10.85;;;;;10.10;93358.00;;;;7403814;19;20159;-74
2022/04/25 09:25:29;;;;;;;12.65;11.20;;;;;9.80;93351.00;;;;7403162;19;20153;-74
2022/04/25 09:28:14;;;;;;;11.98;10.88;;;;;9.50;93363.00;;;;7401786;19;20261;-75
2022/04/25 09:30:57;;;;;;;12.80;11.52;;;;;9.30;93367.00;;;;7399512;19;20151;-73
2022/04/25 09:33:26;;;;;;;13.75;12.35;;;;;9.40;93361.00;;;;7401615;19;20152;-74
2022/04/25 09:36:02;;;;;;;12.05;10.85;;;;;9.00;93364.00;;;;7400207;19;20152;-75
2022/04/25 09:38:36;;;;;;;14.07;10.90;;;;;8.40;93361.00;;;;7404692;19;20145;-75
2022/04/25 09:41:13;;;;;;;11.33;10.20;;;;;8.10;93368.00;;;;7397839;19;20713;-74
2022/04/25 09:43:44;;;;;;;11.83;10.60;;;;;7.60;93373.00;;;;7401177;19;20193;-76
2022/04/25 09:46:19;;;;;;;14.87;12.20;;;;;7.50;93377.00;;;;7401826;19;20476;-74
2022/04/25 09:49:04;;;;;;;15.33;11.80;;;;;7.50;93375.00;;;;7402328;19;20157;-73
2022/04/25 09:51:45;;;;;;;13.47;11.77;;;;;7.20;93375.00;;;;7400795;19;20149;-72
2022/04/25 09:54:25;;;;;;;16.37;11.53;;;;;7.30;93384.00;;;;7400696;19;20160;-73
2022/04/25 09:57:00;;;;;;;13.23;11.93;;;;;7.40;93388.00;;;;7403104;19;20627;-73
2022/04/25 09:59:46;;;;;;;14.87;11.33;;;;;7.30;93382.00;;;;7402013;19;20490;-72
2022/04/25 10:02:21;;;;;;;14.43;11.33;;;;;7.50;93385.00;;;;7400640;19;20177;-72
2022/04/25 10:04:49;;;;;;;17.37;11.70;;;;;7.80;93385.00;;;;7401581;19;20156;-73
2022/04/25 10:07:20;;;;;;;12.20;10.83;;;;;7.90;93389.00;;;;7401299;19;20155;-73
2022/04/25 10:09:55;;;;;;;12.87;11.43;;;;;8.10;93379.00;;;;7398945;19;20182;-73
2022/04/25 10:12:23;;;;;;;13.33;11.33;;;;;8.20;93387.00;;;;7400214;19;20156;-73
2022/04/25 10:14:53;;;;;;;12.07;10.77;;;;;8.10;93390.00;;;;7399821;19;20164;-72
2022/04/25 10:17:28;;;;;;;11.60;10.50;;;;;7.90;93393.00;;;;7400765;19;20903;-73
2022/04/25 10:19:57;;;;;;;12.93;11.57;;;;;8.00;93392.00;;;;7400310;19;20128;-74
2022/04/25 10:22:32;;;;;;;12.97;10.63;;;;;8.30;93400.00;;;;7400261;19;20163;-73
2022/04/25 10:25:07;;;;;;;12.90;11.63;;;;;8.30;93399.00;;;;7401720;19;20149;-73
2022/04/25 10:27:40;;;;;;;12.07;10.87;;;;;8.50;93395.00;;;;7399133;19;20157;-75
2022/04/25 10:30:20;;;;;;;13.33;12.03;;;;;8.50;93399.00;;;;7399526;19;20152;-74
2022/04/25 10:32:49;;;;;;;12.13;10.93;;;;;8.50;93402.00;;;;7399335;19;20148;-73
2022/04/25 10:35:34;;;;;;;13.83;10.33;;;;;8.60;93408.00;;;;7403080;19;20636;-73
2022/04/25 10:38:47;;;;;;;10.93;9.83;;;;;8.30;93403.00;;;;7397406;19;20579;-74
2022/04/25 10:44:17;;;;;;;10.50;9.40;;;;;8.00;93400.00;;;;7400423;19;20140;-73
2022/04/25 10:47:04;;;;;;;10.43;9.17;;;;;8.00;93388.00;;;;7401261;19;20167;-74
2022/04/25 10:49:34;;;;;;;10.83;9.37;;;;;8.10;93392.00;;;;7389751;19;20149;-75
2022/04/25 10:52:33;;;;;;;10.20;8.90;;;;;7.90;93386.00;;;;7398447;19;20148;-73
2022/04/25 10:55:21;;;;;;;10.07;9.07;;;;;8.00;93381.00;;;;7397758;19;20140;-74
2022/04/25 10:58:15;;;;;;;10.23;8.87;;;;;8.20;93387.00;;;;7399316;19;20160;-76
2022/04/25 11:00:52;;;;;;;9.83;8.83;;;;;8.40;93382.00;;;;7396022;19;20165;-74
2022/04/25 11:03:31;;;;;;;9.63;8.73;;;;;8.30;93388.00;;;;7393069;19;20188;-75
2022/04/25 11:06:24;;;;;;;9.30;8.30;;;;;8.70;93392.00;;;;7395816;19;20133;-75
2022/04/25 11:09:07;;;;;;;7.73;7.00;;;;;8.80;93396.00;;;;7398309;19;20152;-74
2022/04/25 11:11:53;;;;;;;8.53;7.73;;;;;8.90;93395.00;;;;7399041;19;20503;-75
2022/04/25 11:14:30;;;;;;;8.80;7.90;;;;;9.30;93389.00;;;;7402268;19;20156;-76
2022/04/25 11:17:12;;;;;;;9.57;7.20;;;;;10.00;93388.00;;;;7397200;19;20148;-77
2022/04/25 11:19:53;;;;;;;7.03;6.33;;;;;10.10;93391.00;;;;7394968;19;20149;-76
2022/04/25 11:22:38;;;;;;;7.17;6.10;;;;;10.60;93382.00;;;;7395078;19;20141;-78
2022/04/25 11:25:34;;;;;;;5.57;5.07;;;;;10.80;93388.00;;;;7396717;19;20149;-76
2022/04/25 11:28:11;;;;;;;5.70;4.47;;;;;11.00;93391.00;;;;7393558;19;20603;-77
2022/04/25 11:31:15;;;;;;;4.93;4.53;;;;;11.90;93403.00;;;;7393936;19;20169;-75
2022/04/25 11:33:44;;;;;;;4.60;4.20;;;;;12.10;93387.00;;;;7394333;19;20148;-77
2022/04/25 11:36:21;;;;;;;4.60;3.72;;;;;14.00;93393.00;;;;7394484;19;20271;-77
2022/04/25 11:41:45;;;;;;;3.72;3.42;;;;;13.90;93390.00;;;;7394593;19;20466;-76
2022/04/25 11:44:13;;;;;;;3.67;3.38;;;;;14.20;93394.00;;;;7387830;19;20861;-78
2022/04/25 11:46:41;;;;;;;2.85;2.65;;;;;14.20;93384.00;;;;7388192;19;20152;-76
2022/04/25 11:49:27;;;;;;;2.85;2.55;;;;;14.40;93391.00;;;;7394181;19;20155;-75
2022/04/25 11:52:03;;;;;;;2.70;2.50;;;;;14.70;93390.00;;;;7390454;19;20176;-74
2022/04/25 11:54:41;;;;;;;3.00;2.70;;;;;13.80;93391.00;;;;7393004;19;20626;-75
2022/04/25 11:57:09;;;;;;;2.60;2.40;;;;;13.60;93403.00;;;;7393053;19;20168;-75
2022/04/25 11:59:36;;;;;;;2.97;2.78;;;;;13.20;93399.00;;;;7391286;19;20172;-75
2022/04/25 12:02:14;;;;;;;2.47;2.28;;;;;13.50;93414.00;;;;7391851;19;20151;-76
2022/04/25 12:04:42;;;;;;;2.78;2.58;;;;;13.60;93404.00;;;;7395884;19;20643;-75
2022/04/25 12:07:14;;;;;;;2.85;2.65;;;;;16.10;93390.00;;;;7400726;19;20156;-75
2022/04/25 12:15:34;;;;;;;2.42;2.22;;;;;16.30;93377.00;;;;7400368;19;20158;-74
2022/04/25 12:18:20;;;;;;;2.30;2.10;;;;;15.20;93366.00;;;;7399396;19;20651;-75
2022/04/25 12:21:09;;;;;;;2.60;2.40;;;;;15.20;93393.00;;;;7400168;19;20212;-75
2022/04/25 12:23:40;;;;;;;4.40;2.60;;;;;15.20;93387.00;;;;7398881;19;20138;-75
2022/04/25 12:26:19;;;;;;;3.80;2.25;;;;;16.60;93363.00;;;;7399176;19;20140;-74
2022/04/25 12:29:13;;;;;;;2.92;2.72;;;;;18.60;93384.00;;;;7400091;19;20156;-75
2022/04/25 12:31:50;;;;;;;2.10;1.90;;;;;18.00;93383.00;;;;7396694;19;20157;-75
2022/04/25 12:34:19;;;;;;;2.13;1.92;;;;;17.60;93395.00;;;;7399968;19;20516;-74
2022/04/25 12:36:57;;;;;;;2.13;1.90;;;;;17.70;93365.00;;;;7399015;19;20222;-75
2022/04/25 12:39:32;;;;;;;2.88;2.65;;;;;18.40;93393.00;;;;7397648;19;20888;-75
2022/04/25 12:42:02;;;;;;;2.53;2.33;;;;;17.60;93394.00;;;;7398299;19;20156;-76
2022/04/25 12:44:30;;;;;;;2.55;2.35;;;;;16.90;93382.00;;;;7397409;19;20133;-75
2022/04/25 12:47:07;;;;;;;2.50;2.30;;;;;17.70;93381.00;;;;7397179;19;20182;-75
2022/04/25 12:49:36;;;;;;;2.40;2.20;;;;;18.60;93377.00;;;;7394789;19;20152;-75
2022/04/25 12:52:24;;;;;;;2.33;2.13;;;;;17.70;93353.00;;;;7396523;19;20526;-76
2022/04/25 12:54:58;;;;;;;2.60;2.20;;;;;17.70;93369.00;;;;7398862;19;20164;-73
2022/04/25 12:57:32;;;;;;;2.10;2.00;;;;;18.20;93386.00;;;;7400057;19;20168;-75
2022/04/25 13:00:01;;;;;;;2.60;2.40;;;;;17.70;93392.00;;;;7399164;19;20167;-75
2022/04/25 13:02:34;;;;;;;3.10;2.40;;;;;17.00;93384.00;;;;7396791;19;20188;-76
2022/04/25 13:05:12;;;;;;;2.08;1.88;;;;;16.40;93394.00;;;;7399076;19;20160;-75
2022/04/25 13:07:48;;;;;;;2.45;2.25;;;;;16.30;93386.00;;;;7397609;19;20144;-75
2022/04/25 13:10:23;;;;;;;3.40;3.10;;;;;16.10;93380.00;;;;7399703;19;20176;-75
2022/04/25 13:12:54;;;;;;;2.92;2.70;;;;;16.90;93395.00;;;;7398859;19;20132;-75